Aviation Digital Data Service (ADDS)

Output produced by METARs form (1847 UTC 19 April 2019)
found at http://www.aviationweather.gov/metar/data/
 
METAR text: WBKL 191800Z 00000KT 9999 FEW012 BKN290 26/25 Q1008
Conditions at: WBKL (LABUAN (AFB) , MY) observed 1800 UTC 19 April 2019
Temperature: 26.0°C (79°F)
Dewpoint: 25.0°C (77°F) [RH = 94%]
Pressure (altimeter): 29.76 inches Hg (1008.0 mb)
Winds: calm
Visibility: 6 or more miles (10+ km)
Ceiling: 29000 feet AGL
Clouds: few clouds at 1200 feet AGL
broken clouds at 29000 feet AGL
Weather: no significant weather observed at this time

METAR text: WBKL 191700Z 00000KT 9999 FEW012 BKN290 26/25 Q1008
Conditions at: WBKL (LABUAN (AFB) , MY) observed 1700 UTC 19 April 2019
Temperature: 26.0°C (79°F)
Dewpoint: 25.0°C (77°F) [RH = 94%]
Pressure (altimeter): 29.76 inches Hg (1008.0 mb)
Winds: calm
Visibility: 6 or more miles (10+ km)
Ceiling: 29000 feet AGL
Clouds: few clouds at 1200 feet AGL
broken clouds at 29000 feet AGL
Weather: no significant weather observed at this time

METAR text: WBKL 191600Z 00000KT 9999 FEW012 BKN290 26/25 Q1009
Conditions at: WBKL (LABUAN (AFB) , MY) observed 1600 UTC 19 April 2019
Temperature: 26.0°C (79°F)
Dewpoint: 25.0°C (77°F) [RH = 94%]
Pressure (altimeter): 29.79 inches Hg (1009.0 mb)
Winds: calm
Visibility: 6 or more miles (10+ km)
Ceiling: 29000 feet AGL
Clouds: few clouds at 1200 feet AGL
broken clouds at 29000 feet AGL
Weather: no significant weather observed at this time

METAR text: WBKL 191500Z VRB02KT 9999 FEW012 SCT130 OVC280 26/25 Q1010
Conditions at: WBKL (LABUAN (AFB) , MY) observed 1500 UTC 19 April 2019
Temperature: 26.0°C (79°F)
Dewpoint: 25.0°C (77°F) [RH = 94%]
Pressure (altimeter): 29.82 inches Hg (1010.0 mb)
Winds: variable direction winds at 2 MPH (2 knots; 1.0 m/s)
Visibility: 6 or more miles (10+ km)
Ceiling: 28000 feet AGL
Clouds: few clouds at 1200 feet AGL
scattered clouds at 13000 feet AGL
overcast cloud deck at 28000 feet AGL
Weather: no significant weather observed at this time

METAR text: WBKL 191400Z VRB01KT 9999 FEW012 FEW014CB SCT130 OVC280 26/25 Q1009 RETSRA
Conditions at: WBKL (LABUAN (AFB) , MY) observed 1400 UTC 19 April 2019
Temperature: 26.0°C (79°F)
Dewpoint: 25.0°C (77°F) [RH = 94%]
Pressure (altimeter): 29.79 inches Hg (1009.0 mb)
Winds: variable direction winds at 1 MPH (1 knots; 0.5 m/s)
Visibility: 6 or more miles (10+ km)
Ceiling: 28000 feet AGL
Clouds: few clouds at 1200 feet AGL
few clouds at 1400 feet AGL
scattered clouds at 13000 feet AGL
overcast cloud deck at 28000 feet AGL
Weather: no significant weather observed at this time

METAR text: WBKL 191300Z VRB02KT 5000 -TSRA FEW012 FEW014CB BKN130 OVC280 26/25 Q1009
Conditions at: WBKL (LABUAN (AFB) , MY) observed 1300 UTC 19 April 2019
Temperature: 26.0°C (79°F)
Dewpoint: 25.0°C (77°F) [RH = 94%]
Pressure (altimeter): 29.79 inches Hg (1009.0 mb)
Winds: variable direction winds at 2 MPH (2 knots; 1.0 m/s)
Visibility: 3 miles ( 5 km)
Ceiling: 13000 feet AGL
Clouds: few clouds at 1200 feet AGL
few clouds at 1400 feet AGL
broken clouds at 13000 feet AGL
overcast cloud deck at 28000 feet AGL
Weather: -TSRA  (light rain associated with thunderstorm(s))

METAR text: WBKL 191200Z 10008G19KT 050V150 5000 -TSRA SCT012 FEW014CB SCT040 BKN130 27/26 Q1008
Conditions at: WBKL (LABUAN (AFB) , MY) observed 1200 UTC 19 April 2019
Temperature: 27.0°C (81°F)
Dewpoint: 26.0°C (79°F) [RH = 94%]
Pressure (altimeter): 29.76 inches Hg (1008.0 mb)
Winds: from the E (100 degrees) at 9 MPH (8 knots; 4.1 m/s)
gusting to 22 MPH (19 knots; 9.8 m/s)
Visibility: 3 miles ( 5 km)
Ceiling: 13000 feet AGL
Clouds: scattered clouds at 1200 feet AGL
few clouds at 1400 feet AGL
scattered clouds at 4000 feet AGL
broken clouds at 13000 feet AGL
Weather: -TSRA  (light rain associated with thunderstorm(s))

METAR text: WBKL 191100Z VRB02KT 5000 -TSRA FEW012 FEW014CB BKN140 OVC280 29/26 Q1008 RETS
Conditions at: WBKL (LABUAN (AFB) , MY) observed 1100 UTC 19 April 2019
Temperature: 29.0°C (84°F)
Dewpoint: 26.0°C (79°F) [RH = 84%]
Pressure (altimeter): 29.76 inches Hg (1008.0 mb)
Winds: variable direction winds at 2 MPH (2 knots; 1.0 m/s)
Visibility: 3 miles ( 5 km)
Ceiling: 14000 feet AGL
Clouds: few clouds at 1200 feet AGL
few clouds at 1400 feet AGL
broken clouds at 14000 feet AGL
overcast cloud deck at 28000 feet AGL
Weather: -TSRA  (light rain associated with thunderstorm(s))

METAR text: WBKL 191000Z 29004KT 200V360 9999 FEW012 FEW014CB BKN140 BKN280 30/26 Q1007
Conditions at: WBKL (LABUAN (AFB) , MY) observed 1000 UTC 19 April 2019
Temperature: 30.0°C (86°F)
Dewpoint: 26.0°C (79°F) [RH = 79%]
Pressure (altimeter): 29.73 inches Hg (1007.0 mb)
Winds: from the WNW (290 degrees) at 5 MPH (4 knots; 2.1 m/s)
Visibility: 6 or more miles (10+ km)
Ceiling: 14000 feet AGL
Clouds: few clouds at 1200 feet AGL
few clouds at 1400 feet AGL
broken clouds at 14000 feet AGL
broken clouds at 28000 feet AGL
Weather: no significant weather observed at this time

METAR text: WBKL 190900Z 29006KT 230V030 9999 FEW012 SCT040 BKN140 30/26 Q1006 RETS
Conditions at: WBKL (LABUAN (AFB) , MY) observed 0900 UTC 19 April 2019
Temperature: 30.0°C (86°F)
Dewpoint: 26.0°C (79°F) [RH = 79%]
Pressure (altimeter): 29.70 inches Hg (1006.0 mb)
Winds: from the WNW (290 degrees) at 7 MPH (6 knots; 3.1 m/s)
Visibility: 6 or more miles (10+ km)
Ceiling: 14000 feet AGL
Clouds: few clouds at 1200 feet AGL
scattered clouds at 4000 feet AGL
broken clouds at 14000 feet AGL
Weather: no significant weather observed at this time

METAR text: WBKL 190800Z VRB07KT 9999 FEW012 FEW014CB BKN140 BKN290 31/27 Q1005
Conditions at: WBKL (LABUAN (AFB) , MY) observed 0800 UTC 19 April 2019
Temperature: 31.0°C (88°F)
Dewpoint: 27.0°C (81°F) [RH = 79%]
Pressure (altimeter): 29.68 inches Hg (1005.0 mb)
Winds: variable direction winds at 8 MPH (7 knots; 3.6 m/s)
Visibility: 6 or more miles (10+ km)
Ceiling: 14000 feet AGL
Clouds: few clouds at 1200 feet AGL
few clouds at 1400 feet AGL
broken clouds at 14000 feet AGL
broken clouds at 29000 feet AGL
Weather: no significant weather observed at this time

METAR text: WBKL 190700Z 29009KT 200V350 9999 FEW012 FEW014CB SCT140 BKN290 31/26 Q1005
Conditions at: WBKL (LABUAN (AFB) , MY) observed 0700 UTC 19 April 2019
Temperature: 31.0°C (88°F)
Dewpoint: 26.0°C (79°F) [RH = 75%]
Pressure (altimeter): 29.68 inches Hg (1005.0 mb)
Winds: from the WNW (290 degrees) at 10 MPH (9 knots; 4.6 m/s)
Visibility: 6 or more miles (10+ km)
Ceiling: 29000 feet AGL
Clouds: few clouds at 1200 feet AGL
few clouds at 1400 feet AGL
scattered clouds at 14000 feet AGL
broken clouds at 29000 feet AGL
Weather: no significant weather observed at this time

METAR text: WBKL 190600Z 27007KT 210V350 9999 FEW012 SCT140 BKN290 31/26 Q1007
Conditions at: WBKL (LABUAN (AFB) , MY) observed 0600 UTC 19 April 2019
Temperature: 31.0°C (88°F)
Dewpoint: 26.0°C (79°F) [RH = 75%]
Pressure (altimeter): 29.73 inches Hg (1007.0 mb)
Winds: from the W (270 degrees) at 8 MPH (7 knots; 3.6 m/s)
Visibility: 6 or more miles (10+ km)
Ceiling: 29000 feet AGL
Clouds: few clouds at 1200 feet AGL
scattered clouds at 14000 feet AGL
broken clouds at 29000 feet AGL
Weather: no significant weather observed at this time

METAR text: WBKL 190500Z 27006KT 180V350 9999 FEW012 BKN290 32/27 Q1008
Conditions at: WBKL (LABUAN (AFB) , MY) observed 0500 UTC 19 April 2019
Temperature: 32.0°C (90°F)
Dewpoint: 27.0°C (81°F) [RH = 75%]
Pressure (altimeter): 29.76 inches Hg (1008.0 mb)
Winds: from the W (270 degrees) at 7 MPH (6 knots; 3.1 m/s)
Visibility: 6 or more miles (10+ km)
Ceiling: 29000 feet AGL
Clouds: few clouds at 1200 feet AGL
broken clouds at 29000 feet AGL
Weather: no significant weather observed at this time

METAR text: WBKL 190400Z VRB04KT 9999 FEW012 BKN290 32/26 Q1009
Conditions at: WBKL (LABUAN (AFB) , MY) observed 0400 UTC 19 April 2019
Temperature: 32.0°C (90°F)
Dewpoint: 26.0°C (79°F) [RH = 71%]
Pressure (altimeter): 29.79 inches Hg (1009.0 mb)
Winds: variable direction winds at 5 MPH (4 knots; 2.1 m/s)
Visibility: 6 or more miles (10+ km)
Ceiling: 29000 feet AGL
Clouds: few clouds at 1200 feet AGL
broken clouds at 29000 feet AGL
Weather: no significant weather observed at this time

METAR text: WBKL 190300Z 21004KT 120V290 9999 FEW010 SCT140 BKN290 31/26 Q1010
Conditions at: WBKL (LABUAN (AFB) , MY) observed 0300 UTC 19 April 2019
Temperature: 31.0°C (88°F)
Dewpoint: 26.0°C (79°F) [RH = 75%]
Pressure (altimeter): 29.82 inches Hg (1010.0 mb)
Winds: from the SSW (210 degrees) at 5 MPH (4 knots; 2.1 m/s)
Visibility: 6 or more miles (10+ km)
Ceiling: 29000 feet AGL
Clouds: few clouds at 1000 feet AGL
scattered clouds at 14000 feet AGL
broken clouds at 29000 feet AGL
Weather: no significant weather observed at this time

METAR text: WBKL 190200Z 22003KT 140V290 9999 FEW010 SCT140 BKN290 31/26 Q1010
Conditions at: WBKL (LABUAN (AFB) , MY) observed 0200 UTC 19 April 2019
Temperature: 31.0°C (88°F)
Dewpoint: 26.0°C (79°F) [RH = 75%]
Pressure (altimeter): 29.82 inches Hg (1010.0 mb)
Winds: from the SW (220 degrees) at 3 MPH (3 knots; 1.5 m/s)
Visibility: 6 or more miles (10+ km)
Ceiling: 29000 feet AGL
Clouds: few clouds at 1000 feet AGL
scattered clouds at 14000 feet AGL
broken clouds at 29000 feet AGL
Weather: no significant weather observed at this time

METAR text: WBKL 190100Z VRB04KT 9999 FEW010 SCT130 BKN290 29/27 Q1010
Conditions at: WBKL (LABUAN (AFB) , MY) observed 0100 UTC 19 April 2019
Temperature: 29.0°C (84°F)
Dewpoint: 27.0°C (81°F) [RH = 89%]
Pressure (altimeter): 29.82 inches Hg (1010.0 mb)
Winds: variable direction winds at 5 MPH (4 knots; 2.1 m/s)
Visibility: 6 or more miles (10+ km)
Ceiling: 29000 feet AGL
Clouds: few clouds at 1000 feet AGL
scattered clouds at 13000 feet AGL
broken clouds at 29000 feet AGL
Weather: no significant weather observed at this time

METAR text: WBKL 190000Z 00000KT 6000 -RA SCT010 SCT130 BKN290 28/27 Q1010
Conditions at: WBKL (LABUAN (AFB) , MY) observed 0000 UTC 19 April 2019
Temperature: 28.0°C (82°F)
Dewpoint: 27.0°C (81°F) [RH = 94%]
Pressure (altimeter): 29.82 inches Hg (1010.0 mb)
Winds: calm
Visibility: 4 miles ( 6 km)
Ceiling: 29000 feet AGL
Clouds: scattered clouds at 1000 feet AGL
scattered clouds at 13000 feet AGL
broken clouds at 29000 feet AGL
Weather: -RA  (light rain)

METAR text: WBKL 182300Z 00000KT 9999 SCT010 SCT130 BKN290 26/26 Q1009
Conditions at: WBKL (LABUAN (AFB) , MY) observed 2300 UTC 18 April 2019
Temperature: 26.0°C (79°F)
Dewpoint: 26.0°C (79°F) [RH = 100%]
Pressure (altimeter): 29.79 inches Hg (1009.0 mb)
Winds: calm
Visibility: 6 or more miles (10+ km)
Ceiling: 29000 feet AGL
Clouds: scattered clouds at 1000 feet AGL
scattered clouds at 13000 feet AGL
broken clouds at 29000 feet AGL
Weather: no significant weather observed at this time

METAR text: WBKL 182200Z 00000KT 9999 FEW012 FEW013TCU SCT140 BKN280 26/25 Q1008 RETSRA
Conditions at: WBKL (LABUAN (AFB) , MY) observed 2200 UTC 18 April 2019
Temperature: 26.0°C (79°F)
Dewpoint: 25.0°C (77°F) [RH = 94%]
Pressure (altimeter): 29.76 inches Hg (1008.0 mb)
Winds: calm
Visibility: 6 or more miles (10+ km)
Ceiling: 28000 feet AGL
Clouds: few clouds at 1200 feet AGL
few clouds at 1300 feet AGL
scattered clouds at 14000 feet AGL
broken clouds at 28000 feet AGL
Weather: no significant weather observed at this time

METAR text: WBKL 182100Z VRB01KT 3500 TSRA SCT010 FEW013CB SCT140 BKN280 27/25 Q1008
Conditions at: WBKL (LABUAN (AFB) , MY) observed 2100 UTC 18 April 2019
Temperature: 27.0°C (81°F)
Dewpoint: 25.0°C (77°F) [RH = 89%]
Pressure (altimeter): 29.76 inches Hg (1008.0 mb)
Winds: variable direction winds at 1 MPH (1 knots; 0.5 m/s)
Visibility: 2.17 miles (3.49 km)
Ceiling: 28000 feet AGL
Clouds: scattered clouds at 1000 feet AGL
few clouds at 1300 feet AGL
scattered clouds at 14000 feet AGL
broken clouds at 28000 feet AGL
Weather: TSRA  (rain associated with thunderstorm(s))

METAR text: WBKL 182000Z VRB02KT 9999 TS SCT012 FEW013CB BKN140 BKN280 28/26 Q1008
Conditions at: WBKL (LABUAN (AFB) , MY) observed 2000 UTC 18 April 2019
Temperature: 28.0°C (82°F)
Dewpoint: 26.0°C (79°F) [RH = 89%]
Pressure (altimeter): 29.76 inches Hg (1008.0 mb)
Winds: variable direction winds at 2 MPH (2 knots; 1.0 m/s)
Visibility: 6 or more miles (10+ km)
Ceiling: 14000 feet AGL
Clouds: scattered clouds at 1200 feet AGL
few clouds at 1300 feet AGL
broken clouds at 14000 feet AGL
broken clouds at 28000 feet AGL
Weather: TS  (thunderstorm)

METAR text: WBKL 181900Z 00000KT 9999 SCT010 SCT030 BKN140 28/26 Q1008
Conditions at: WBKL (LABUAN (AFB) , MY) observed 1900 UTC 18 April 2019
Temperature: 28.0°C (82°F)
Dewpoint: 26.0°C (79°F) [RH = 89%]
Pressure (altimeter): 29.76 inches Hg (1008.0 mb)
Winds: calm
Visibility: 6 or more miles (10+ km)
Ceiling: 14000 feet AGL
Clouds: scattered clouds at 1000 feet AGL
scattered clouds at 3000 feet AGL
broken clouds at 14000 feet AGL
Weather: no significant weather observed at this time

METAR text: WBKL 181800Z VRB02KT 9999 SCT012 SCT140 BKN290 28/26 Q1008
Conditions at: WBKL (LABUAN (AFB) , MY) observed 1800 UTC 18 April 2019
Temperature: 28.0°C (82°F)
Dewpoint: 26.0°C (79°F) [RH = 89%]
Pressure (altimeter): 29.76 inches Hg (1008.0 mb)
Winds: variable direction winds at 2 MPH (2 knots; 1.0 m/s)
Visibility: 6 or more miles (10+ km)
Ceiling: 29000 feet AGL
Clouds: scattered clouds at 1200 feet AGL
scattered clouds at 14000 feet AGL
broken clouds at 29000 feet AGL
Weather: no significant weather observed at this time

METAR text: WBKL 181700Z VRB02KT 9999 FEW012 SCT140 BKN290 29/27 Q1009
Conditions at: WBKL (LABUAN (AFB) , MY) observed 1700 UTC 18 April 2019
Temperature: 29.0°C (84°F)
Dewpoint: 27.0°C (81°F) [RH = 89%]
Pressure (altimeter): 29.79 inches Hg (1009.0 mb)
Winds: variable direction winds at 2 MPH (2 knots; 1.0 m/s)
Visibility: 6 or more miles (10+ km)
Ceiling: 29000 feet AGL
Clouds: few clouds at 1200 feet AGL
scattered clouds at 14000 feet AGL
broken clouds at 29000 feet AGL
Weather: no significant weather observed at this time

METAR text: WBKL 181600Z VRB01KT 9999 FEW013 SCT140 BKN290 29/27 Q1010
Conditions at: WBKL (LABUAN (AFB) , MY) observed 1600 UTC 18 April 2019
Temperature: 29.0°C (84°F)
Dewpoint: 27.0°C (81°F) [RH = 89%]
Pressure (altimeter): 29.82 inches Hg (1010.0 mb)
Winds: variable direction winds at 1 MPH (1 knots; 0.5 m/s)
Visibility: 6 or more miles (10+ km)
Ceiling: 29000 feet AGL
Clouds: few clouds at 1300 feet AGL
scattered clouds at 14000 feet AGL
broken clouds at 29000 feet AGL
Weather: no significant weather observed at this time

METAR text: WBKL 181500Z VRB02KT 9999 FEW013 SCT140 BKN300 29/27 Q1010
Conditions at: WBKL (LABUAN (AFB) , MY) observed 1500 UTC 18 April 2019
Temperature: 29.0°C (84°F)
Dewpoint: 27.0°C (81°F) [RH = 89%]
Pressure (altimeter): 29.82 inches Hg (1010.0 mb)
Winds: variable direction winds at 2 MPH (2 knots; 1.0 m/s)
Visibility: 6 or more miles (10+ km)
Ceiling: 30000 feet AGL
Clouds: few clouds at 1300 feet AGL
scattered clouds at 14000 feet AGL
broken clouds at 30000 feet AGL
Weather: no significant weather observed at this time

METAR text: WBKL 181400Z 00000KT 9999 FEW013 SCT140 BKN300 29/27 Q1010
Conditions at: WBKL (LABUAN (AFB) , MY) observed 1400 UTC 18 April 2019
Temperature: 29.0°C (84°F)
Dewpoint: 27.0°C (81°F) [RH = 89%]
Pressure (altimeter): 29.82 inches Hg (1010.0 mb)
Winds: calm
Visibility: 6 or more miles (10+ km)
Ceiling: 30000 feet AGL
Clouds: few clouds at 1300 feet AGL
scattered clouds at 14000 feet AGL
broken clouds at 30000 feet AGL
Weather: no significant weather observed at this time

METAR text: WBKL 181300Z 03003KT 340V080 9999 FEW012 BKN130 BKN300 30/26 Q1009
Conditions at: WBKL (LABUAN (AFB) , MY) observed 1300 UTC 18 April 2019
Temperature: 30.0°C (86°F)
Dewpoint: 26.0°C (79°F) [RH = 79%]
Pressure (altimeter): 29.79 inches Hg (1009.0 mb)
Winds: from the NNE (30 degrees) at 3 MPH (3 knots; 1.5 m/s)
Visibility: 6 or more miles (10+ km)
Ceiling: 13000 feet AGL
Clouds: few clouds at 1200 feet AGL
broken clouds at 13000 feet AGL
broken clouds at 30000 feet AGL
Weather: no significant weather observed at this time

METAR text: WBKL 181200Z 35003KT 290V050 9999 FEW014 BKN300 30/26 Q1008
Conditions at: WBKL (LABUAN (AFB) , MY) observed 1200 UTC 18 April 2019
Temperature: 30.0°C (86°F)
Dewpoint: 26.0°C (79°F) [RH = 79%]
Pressure (altimeter): 29.76 inches Hg (1008.0 mb)
Winds: from the N (350 degrees) at 3 MPH (3 knots; 1.5 m/s)
Visibility: 6 or more miles (10+ km)
Ceiling: 30000 feet AGL
Clouds: few clouds at 1400 feet AGL
broken clouds at 30000 feet AGL
Weather: no significant weather observed at this time

METAR text: WBKL 181100Z 34003KT 290V020 9999 FEW014 SCT130 BKN290 30/26 Q1008
Conditions at: WBKL (LABUAN (AFB) , MY) observed 1100 UTC 18 April 2019
Temperature: 30.0°C (86°F)
Dewpoint: 26.0°C (79°F) [RH = 79%]
Pressure (altimeter): 29.76 inches Hg (1008.0 mb)
Winds: from the NNW (340 degrees) at 3 MPH (3 knots; 1.5 m/s)
Visibility: 6 or more miles (10+ km)
Ceiling: 29000 feet AGL
Clouds: few clouds at 1400 feet AGL
scattered clouds at 13000 feet AGL
broken clouds at 29000 feet AGL
Weather: no significant weather observed at this time

METAR text: WBKL 181000Z 35004KT 270V050 9999 FEW014 FEW015CB BKN290 31/25 Q1007 RETS
Conditions at: WBKL (LABUAN (AFB) , MY) observed 1000 UTC 18 April 2019
Temperature: 31.0°C (88°F)
Dewpoint: 25.0°C (77°F) [RH = 71%]
Pressure (altimeter): 29.73 inches Hg (1007.0 mb)
Winds: from the N (350 degrees) at 5 MPH (4 knots; 2.1 m/s)
Visibility: 6 or more miles (10+ km)
Ceiling: 29000 feet AGL
Clouds: few clouds at 1400 feet AGL
few clouds at 1500 feet AGL
broken clouds at 29000 feet AGL
Weather: no significant weather observed at this time

METAR text: WBKL 180900Z 34006KT 240V050 9999 TS FEW014 FEW015CB BKN290 32/25 Q1007
Conditions at: WBKL (LABUAN (AFB) , MY) observed 0900 UTC 18 April 2019
Temperature: 32.0°C (90°F)
Dewpoint: 25.0°C (77°F) [RH = 67%]
Pressure (altimeter): 29.73 inches Hg (1007.0 mb)
Winds: from the NNW (340 degrees) at 7 MPH (6 knots; 3.1 m/s)
Visibility: 6 or more miles (10+ km)
Ceiling: 29000 feet AGL
Clouds: few clouds at 1400 feet AGL
few clouds at 1500 feet AGL
broken clouds at 29000 feet AGL
Weather: TS  (thunderstorm)

METAR text: WBKL 180800Z 33006KT 240V030 9999 FEW014 FEW015CB BKN300 32/25 Q1006
Conditions at: WBKL (LABUAN (AFB) , MY) observed 0800 UTC 18 April 2019
Temperature: 32.0°C (90°F)
Dewpoint: 25.0°C (77°F) [RH = 67%]
Pressure (altimeter): 29.70 inches Hg (1006.0 mb)
Winds: from the NNW (330 degrees) at 7 MPH (6 knots; 3.1 m/s)
Visibility: 6 or more miles (10+ km)
Ceiling: 30000 feet AGL
Clouds: few clouds at 1400 feet AGL
few clouds at 1500 feet AGL
broken clouds at 30000 feet AGL
Weather: no significant weather observed at this time

METAR text: WBKL 180700Z 33007KT 250V030 9999 FEW015 FEW016CB BKN300 33/25 Q1007
Conditions at: WBKL (LABUAN (AFB) , MY) observed 0700 UTC 18 April 2019
Temperature: 33.0°C (91°F)
Dewpoint: 25.0°C (77°F) [RH = 63%]
Pressure (altimeter): 29.73 inches Hg (1007.0 mb)
Winds: from the NNW (330 degrees) at 8 MPH (7 knots; 3.6 m/s)
Visibility: 6 or more miles (10+ km)
Ceiling: 30000 feet AGL
Clouds: few clouds at 1500 feet AGL
few clouds at 1600 feet AGL
broken clouds at 30000 feet AGL
Weather: no significant weather observed at this time

Forecast for: WBKL (LABUAN (AFB) , MY)
Text: TAF WBKL 191700Z 1918/2018 VRB03KT 9999 FEW012
Forecast period: 1800 UTC 19 April 2019 to 1800 UTC 20 April 2019
Forecast type: FROM: standard forecast or significant change
Winds: variable direction winds at 3 MPH (3 knots; 1.5 m/s)
Visibility: 6 or more miles 10+ km)
Ceiling: at least 12,000 feet AGL
Clouds: few clouds at 1200 feet AGL
Weather: no significant weather forecast for this period
Text: PROB30
Forecast period: 1000 to 1400 UTC 20 April 2019
Forecast type: TEMPORARY: The following changes expected for less than half the time period
Visibility: 3 miles (5 km)
Ceiling: at least 12,000 feet AGL
Clouds: scattered clouds at 1000 feet AGL
few clouds at 1300 feet AGL
scattered clouds at 3500 feet AGL
Weather: TSRA  (rain associated with thunderstorm(s))